sensor_id;sensor_type;location;lat;lon;timestamp;P1;durP1;ratioP1;P2;durP2;ratioP2
55025;SDS011;40925;45.666;18.994;2023-08-24T00:01:38;12.40;;;7.18;;
55025;SDS011;40925;45.666;18.994;2023-08-24T00:04:04;9.05;;;7.03;;
55025;SDS011;40925;45.666;18.994;2023-08-24T00:06:31;11.93;;;7.50;;
55025;SDS011;40925;45.666;18.994;2023-08-24T00:08:57;10.00;;;7.65;;
55025;SDS011;40925;45.666;18.994;2023-08-24T00:11:24;12.52;;;7.57;;
55025;SDS011;40925;45.666;18.994;2023-08-24T00:13:50;11.95;;;7.43;;
55025;SDS011;40925;45.666;18.994;2023-08-24T00:16:17;10.48;;;7.25;;
55025;SDS011;40925;45.666;18.994;2023-08-24T00:18:43;9.75;;;7.40;;
55025;SDS011;40925;45.666;18.994;2023-08-24T00:21:28;11.02;;;7.60;;
55025;SDS011;40925;45.666;18.994;2023-08-24T00:23:54;11.13;;;7.35;;
55025;SDS011;40925;45.666;18.994;2023-08-24T00:26:20;10.32;;;7.50;;
55025;SDS011;40925;45.666;18.994;2023-08-24T00:28:46;12.05;;;7.80;;
55025;SDS011;40925;45.666;18.994;2023-08-24T00:31:15;12.77;;;7.88;;
55025;SDS011;40925;45.666;18.994;2023-08-24T00:33:41;9.45;;;7.50;;
55025;SDS011;40925;45.666;18.994;2023-08-24T00:36:07;16.23;;;8.02;;
55025;SDS011;40925;45.666;18.994;2023-08-24T00:38:33;11.68;;;7.82;;
55025;SDS011;40925;45.666;18.994;2023-08-24T00:40:59;9.13;;;7.72;;
55025;SDS011;40925;45.666;18.994;2023-08-24T00:43:26;10.80;;;7.82;;
55025;SDS011;40925;45.666;18.994;2023-08-24T00:45:52;11.65;;;7.82;;
55025;SDS011;40925;45.666;18.994;2023-08-24T00:48:19;8.75;;;7.50;;
55025;SDS011;40925;45.666;18.994;2023-08-24T00:50:51;11.85;;;8.10;;
55025;SDS011;40925;45.666;18.994;2023-08-24T00:53:18;10.02;;;7.72;;
55025;SDS011;40925;45.666;18.994;2023-08-24T00:55:46;11.52;;;8.07;;
55025;SDS011;40925;45.666;18.994;2023-08-24T00:58:13;11.05;;;7.70;;
55025;SDS011;40925;45.666;18.994;2023-08-24T01:00:39;10.02;;;8.63;;
55025;SDS011;40925;45.666;18.994;2023-08-24T01:03:05;13.35;;;8.27;;
55025;SDS011;40925;45.666;18.994;2023-08-24T01:05:31;12.48;;;8.18;;
55025;SDS011;40925;45.666;18.994;2023-08-24T01:07:57;11.15;;;7.65;;
55025;SDS011;40925;45.666;18.994;2023-08-24T01:10:25;12.50;;;8.63;;
55025;SDS011;40925;45.666;18.994;2023-08-24T01:17:48;12.55;;;7.88;;
55025;SDS011;40925;45.666;18.994;2023-08-24T01:20:15;12.85;;;8.40;;
55025;SDS011;40925;45.666;18.994;2023-08-24T01:22:45;12.45;;;8.05;;
55025;SDS011;40925;45.666;18.994;2023-08-24T01:25:17;10.80;;;8.27;;
55025;SDS011;40925;45.666;18.994;2023-08-24T01:27:48;13.95;;;8.73;;
55025;SDS011;40925;45.666;18.994;2023-08-24T01:30:15;12.02;;;8.10;;
55025;SDS011;40925;45.666;18.994;2023-08-24T01:32:41;10.77;;;8.52;;
55025;SDS011;40925;45.666;18.994;2023-08-24T01:35:08;13.43;;;9.15;;
55025;SDS011;40925;45.666;18.994;2023-08-24T01:37:35;12.98;;;9.43;;
55025;SDS011;40925;45.666;18.994;2023-08-24T01:42:52;10.95;;;8.32;;
55025;SDS011;40925;45.666;18.994;2023-08-24T01:45:20;10.50;;;8.60;;
55025;SDS011;40925;45.666;18.994;2023-08-24T01:47:48;11.73;;;8.85;;
55025;SDS011;40925;45.666;18.994;2023-08-24T01:50:14;10.02;;;8.88;;
55025;SDS011;40925;45.666;18.994;2023-08-24T01:52:41;13.27;;;8.60;;
55025;SDS011;40925;45.666;18.994;2023-08-24T01:55:07;11.98;;;8.90;;
55025;SDS011;40925;45.666;18.994;2023-08-24T01:57:34;12.20;;;8.38;;
55025;SDS011;40925;45.666;18.994;2023-08-24T02:00:00;12.63;;;8.93;;
55025;SDS011;40925;45.666;18.994;2023-08-24T02:02:26;14.73;;;8.43;;
55025;SDS011;40925;45.666;18.994;2023-08-24T02:04:52;12.70;;;8.57;;
55025;SDS011;40925;45.666;18.994;2023-08-24T02:07:18;13.98;;;9.07;;
55025;SDS011;40925;45.666;18.994;2023-08-24T02:09:44;12.70;;;9.00;;
55025;SDS011;40925;45.666;18.994;2023-08-24T02:12:10;11.23;;;8.15;;
55025;SDS011;40925;45.666;18.994;2023-08-24T02:14:36;14.13;;;8.63;;
55025;SDS011;40925;45.666;18.994;2023-08-24T02:17:03;13.93;;;8.75;;
55025;SDS011;40925;45.666;18.994;2023-08-24T02:19:29;10.70;;;8.82;;
55025;SDS011;40925;45.666;18.994;2023-08-24T02:21:56;11.00;;;8.73;;
55025;SDS011;40925;45.666;18.994;2023-08-24T02:24:22;12.38;;;9.05;;
55025;SDS011;40925;45.666;18.994;2023-08-24T02:26:48;13.05;;;9.23;;
55025;SDS011;40925;45.666;18.994;2023-08-24T02:29:14;13.65;;;8.60;;
55025;SDS011;40925;45.666;18.994;2023-08-24T02:31:43;14.25;;;9.15;;
55025;SDS011;40925;45.666;18.994;2023-08-24T02:34:11;12.18;;;8.85;;
55025;SDS011;40925;45.666;18.994;2023-08-24T02:36:37;12.40;;;8.88;;
55025;SDS011;40925;45.666;18.994;2023-08-24T02:39:04;12.70;;;9.20;;
55025;SDS011;40925;45.666;18.994;2023-08-24T02:41:30;12.20;;;8.90;;
55025;SDS011;40925;45.666;18.994;2023-08-24T02:43:56;11.00;;;8.85;;
55025;SDS011;40925;45.666;18.994;2023-08-24T02:46:22;13.77;;;9.25;;
55025;SDS011;40925;45.666;18.994;2023-08-24T02:48:49;17.52;;;9.45;;
55025;SDS011;40925;45.666;18.994;2023-08-24T02:51:15;13.30;;;9.10;;
55025;SDS011;40925;45.666;18.994;2023-08-24T02:53:41;12.43;;;9.52;;
55025;SDS011;40925;45.666;18.994;2023-08-24T02:56:07;11.90;;;9.20;;
55025;SDS011;40925;45.666;18.994;2023-08-24T02:58:33;10.75;;;8.63;;
55025;SDS011;40925;45.666;18.994;2023-08-24T03:00:59;12.63;;;8.98;;
55025;SDS011;40925;45.666;18.994;2023-08-24T03:03:25;11.55;;;9.27;;
55025;SDS011;40925;45.666;18.994;2023-08-24T03:05:58;14.20;;;9.38;;
55025;SDS011;40925;45.666;18.994;2023-08-24T03:08:24;12.52;;;9.40;;
55025;SDS011;40925;45.666;18.994;2023-08-24T03:10:50;13.27;;;9.57;;
55025;SDS011;40925;45.666;18.994;2023-08-24T03:13:17;12.88;;;9.60;;
55025;SDS011;40925;45.666;18.994;2023-08-24T03:15:43;12.80;;;9.65;;
55025;SDS011;40925;45.666;18.994;2023-08-24T03:18:11;14.57;;;9.75;;
55025;SDS011;40925;45.666;18.994;2023-08-24T03:20:38;13.57;;;9.73;;
55025;SDS011;40925;45.666;18.994;2023-08-24T03:23:05;12.52;;;9.50;;
55025;SDS011;40925;45.666;18.994;2023-08-24T03:25:36;12.05;;;9.27;;
55025;SDS011;40925;45.666;18.994;2023-08-24T03:28:03;11.88;;;9.80;;
55025;SDS011;40925;45.666;18.994;2023-08-24T03:30:29;13.85;;;9.65;;
55025;SDS011;40925;45.666;18.994;2023-08-24T03:32:55;15.95;;;9.80;;
55025;SDS011;40925;45.666;18.994;2023-08-24T03:35:21;14.15;;;10.25;;
55025;SDS011;40925;45.666;18.994;2023-08-24T03:37:47;15.00;;;10.18;;
55025;SDS011;40925;45.666;18.994;2023-08-24T03:40:13;15.70;;;10.32;;
55025;SDS011;40925;45.666;18.994;2023-08-24T03:42:40;13.45;;;10.77;;
55025;SDS011;40925;45.666;18.994;2023-08-24T03:45:06;14.57;;;10.32;;
55025;SDS011;40925;45.666;18.994;2023-08-24T03:47:33;12.88;;;10.63;;
55025;SDS011;40925;45.666;18.994;2023-08-24T03:50:02;16.65;;;10.60;;
55025;SDS011;40925;45.666;18.994;2023-08-24T03:52:28;13.90;;;10.10;;
55025;SDS011;40925;45.666;18.994;2023-08-24T03:54:54;16.63;;;10.63;;
55025;SDS011;40925;45.666;18.994;2023-08-24T03:57:20;15.40;;;10.18;;
55025;SDS011;40925;45.666;18.994;2023-08-24T03:59:46;13.15;;;10.68;;
55025;SDS011;40925;45.666;18.994;2023-08-24T04:02:12;15.98;;;10.55;;
55025;SDS011;40925;45.666;18.994;2023-08-24T04:04:38;15.85;;;10.75;;
55025;SDS011;40925;45.666;18.994;2023-08-24T04:07:04;15.73;;;10.82;;
55025;SDS011;40925;45.666;18.994;2023-08-24T04:09:30;14.90;;;11.02;;
55025;SDS011;40925;45.666;18.994;2023-08-24T04:11:57;13.38;;;10.88;;
55025;SDS011;40925;45.666;18.994;2023-08-24T04:14:23;17.10;;;11.10;;
55025;SDS011;40925;45.666;18.994;2023-08-24T04:16:49;15.35;;;11.00;;
55025;SDS011;40925;45.666;18.994;2023-08-24T04:19:15;13.20;;;10.25;;
55025;SDS011;40925;45.666;18.994;2023-08-24T04:21:41;15.90;;;10.93;;
55025;SDS011;40925;45.666;18.994;2023-08-24T04:24:07;16.50;;;11.05;;
55025;SDS011;40925;45.666;18.994;2023-08-24T04:26:32;17.38;;;10.80;;
55025;SDS011;40925;45.666;18.994;2023-08-24T04:28:58;13.93;;;10.60;;
55025;SDS011;40925;45.666;18.994;2023-08-24T04:31:24;15.77;;;10.77;;
55025;SDS011;40925;45.666;18.994;2023-08-24T04:33:49;14.75;;;11.27;;
55025;SDS011;40925;45.666;18.994;2023-08-24T04:39:19;12.77;;;10.43;;
55025;SDS011;40925;45.666;18.994;2023-08-24T04:41:45;14.98;;;10.48;;
55025;SDS011;40925;45.666;18.994;2023-08-24T04:44:11;15.38;;;10.90;;
55025;SDS011;40925;45.666;18.994;2023-08-24T04:46:37;14.10;;;10.57;;
55025;SDS011;40925;45.666;18.994;2023-08-24T04:49:03;12.88;;;10.90;;
55025;SDS011;40925;45.666;18.994;2023-08-24T04:51:29;14.85;;;10.52;;
55025;SDS011;40925;45.666;18.994;2023-08-24T04:53:55;15.93;;;10.75;;
55025;SDS011;40925;45.666;18.994;2023-08-24T04:56:21;14.77;;;10.45;;
55025;SDS011;40925;45.666;18.994;2023-08-24T04:58:57;17.27;;;10.98;;
55025;SDS011;40925;45.666;18.994;2023-08-24T05:01:25;15.15;;;10.75;;
55025;SDS011;40925;45.666;18.994;2023-08-24T05:03:52;17.48;;;10.07;;
55025;SDS011;40925;45.666;18.994;2023-08-24T05:06:18;15.70;;;10.07;;
55025;SDS011;40925;45.666;18.994;2023-08-24T05:08:46;13.65;;;9.82;;
55025;SDS011;40925;45.666;18.994;2023-08-24T05:11:18;16.83;;;10.55;;
55025;SDS011;40925;45.666;18.994;2023-08-24T05:13:45;14.95;;;10.80;;
55025;SDS011;40925;45.666;18.994;2023-08-24T05:16:11;13.63;;;10.55;;
55025;SDS011;40925;45.666;18.994;2023-08-24T05:18:38;16.42;;;10.27;;
55025;SDS011;40925;45.666;18.994;2023-08-24T05:21:04;13.95;;;10.18;;
55025;SDS011;40925;45.666;18.994;2023-08-24T05:23:31;13.85;;;10.10;;
55025;SDS011;40925;45.666;18.994;2023-08-24T05:25:57;16.95;;;10.20;;
55025;SDS011;40925;45.666;18.994;2023-08-24T05:28:27;14.90;;;10.00;;
55025;SDS011;40925;45.666;18.994;2023-08-24T05:30:53;12.35;;;10.15;;
55025;SDS011;40925;45.666;18.994;2023-08-24T05:33:21;15.82;;;10.25;;
55025;SDS011;40925;45.666;18.994;2023-08-24T05:35:48;12.38;;;10.50;;
55025;SDS011;40925;45.666;18.994;2023-08-24T05:38:14;11.65;;;10.23;;
55025;SDS011;40925;45.666;18.994;2023-08-24T05:40:43;14.23;;;10.85;;
55025;SDS011;40925;45.666;18.994;2023-08-24T05:43:12;15.23;;;10.05;;
55025;SDS011;40925;45.666;18.994;2023-08-24T05:45:38;17.20;;;10.20;;
55025;SDS011;40925;45.666;18.994;2023-08-24T05:48:09;13.88;;;9.85;;
55025;SDS011;40925;45.666;18.994;2023-08-24T05:50:37;15.43;;;10.43;;
55025;SDS011;40925;45.666;18.994;2023-08-24T05:53:07;14.30;;;10.25;;
55025;SDS011;40925;45.666;18.994;2023-08-24T05:55:32;14.80;;;10.63;;
55025;SDS011;40925;45.666;18.994;2023-08-24T05:57:58;16.02;;;10.88;;
55025;SDS011;40925;45.666;18.994;2023-08-24T06:00:24;15.05;;;10.30;;
55025;SDS011;40925;45.666;18.994;2023-08-24T06:02:49;13.32;;;10.73;;
55025;SDS011;40925;45.666;18.994;2023-08-24T06:05:15;12.60;;;10.40;;
55025;SDS011;40925;45.666;18.994;2023-08-24T06:07:43;15.10;;;10.60;;
55025;SDS011;40925;45.666;18.994;2023-08-24T06:10:10;11.70;;;10.25;;
55025;SDS011;40925;45.666;18.994;2023-08-24T06:12:36;13.23;;;10.48;;
55025;SDS011;40925;45.666;18.994;2023-08-24T06:15:05;14.65;;;10.25;;
55025;SDS011;40925;45.666;18.994;2023-08-24T06:17:34;14.32;;;10.85;;
55025;SDS011;40925;45.666;18.994;2023-08-24T06:20:04;13.07;;;10.20;;
55025;SDS011;40925;45.666;18.994;2023-08-24T06:22:31;14.88;;;10.10;;
55025;SDS011;40925;45.666;18.994;2023-08-24T06:24:57;13.30;;;10.35;;
55025;SDS011;40925;45.666;18.994;2023-08-24T06:27:25;16.45;;;11.18;;
55025;SDS011;40925;45.666;18.994;2023-08-24T06:29:51;15.27;;;11.25;;
55025;SDS011;40925;45.666;18.994;2023-08-24T06:32:20;17.17;;;11.40;;
55025;SDS011;40925;45.666;18.994;2023-08-24T06:34:46;14.90;;;11.48;;
55025;SDS011;40925;45.666;18.994;2023-08-24T06:37:12;15.95;;;11.77;;
55025;SDS011;40925;45.666;18.994;2023-08-24T06:39:38;14.27;;;11.65;;
55025;SDS011;40925;45.666;18.994;2023-08-24T06:42:05;16.83;;;11.77;;
55025;SDS011;40925;45.666;18.994;2023-08-24T06:44:30;15.40;;;11.02;;
55025;SDS011;40925;45.666;18.994;2023-08-24T06:46:56;19.77;;;11.23;;
55025;SDS011;40925;45.666;18.994;2023-08-24T06:49:22;14.70;;;11.25;;
55025;SDS011;40925;45.666;18.994;2023-08-24T06:52:09;14.25;;;10.50;;
55025;SDS011;40925;45.666;18.994;2023-08-24T06:54:35;17.27;;;11.77;;
55025;SDS011;40925;45.666;18.994;2023-08-24T06:57:01;14.95;;;10.30;;
55025;SDS011;40925;45.666;18.994;2023-08-24T06:59:28;14.35;;;9.77;;
55025;SDS011;40925;45.666;18.994;2023-08-24T07:01:54;12.35;;;10.20;;
55025;SDS011;40925;45.666;18.994;2023-08-24T07:04:20;12.00;;;9.68;;
55025;SDS011;40925;45.666;18.994;2023-08-24T07:06:45;12.95;;;10.20;;
55025;SDS011;40925;45.666;18.994;2023-08-24T07:09:11;16.23;;;11.90;;
55025;SDS011;40925;45.666;18.994;2023-08-24T07:11:37;11.55;;;9.90;;
55025;SDS011;40925;45.666;18.994;2023-08-24T07:14:06;11.68;;;9.57;;
55025;SDS011;40925;45.666;18.994;2023-08-24T07:16:32;13.18;;;9.63;;
55025;SDS011;40925;45.666;18.994;2023-08-24T07:18:58;17.98;;;9.45;;
55025;SDS011;40925;45.666;18.994;2023-08-24T07:21:24;11.45;;;9.27;;
55025;SDS011;40925;45.666;18.994;2023-08-24T07:23:50;12.98;;;9.82;;
55025;SDS011;40925;45.666;18.994;2023-08-24T07:26:16;14.85;;;9.27;;
55025;SDS011;40925;45.666;18.994;2023-08-24T07:28:43;12.68;;;9.23;;
55025;SDS011;40925;45.666;18.994;2023-08-24T07:31:09;13.35;;;9.18;;
55025;SDS011;40925;45.666;18.994;2023-08-24T07:33:38;13.60;;;9.65;;
55025;SDS011;40925;45.666;18.994;2023-08-24T07:36:05;12.95;;;9.80;;
55025;SDS011;40925;45.666;18.994;2023-08-24T07:38:31;11.73;;;9.43;;
55025;SDS011;40925;45.666;18.994;2023-08-24T07:40:58;10.45;;;9.30;;
55025;SDS011;40925;45.666;18.994;2023-08-24T07:43:25;10.75;;;9.25;;
55025;SDS011;40925;45.666;18.994;2023-08-24T07:45:50;12.40;;;9.98;;
55025;SDS011;40925;45.666;18.994;2023-08-24T07:48:20;12.02;;;10.15;;
55025;SDS011;40925;45.666;18.994;2023-08-24T07:50:45;13.68;;;9.10;;
55025;SDS011;40925;45.666;18.994;2023-08-24T07:53:11;13.13;;;10.20;;
55025;SDS011;40925;45.666;18.994;2023-08-24T07:55:37;14.70;;;9.40;;
55025;SDS011;40925;45.666;18.994;2023-08-24T07:58:02;13.50;;;9.45;;
55025;SDS011;40925;45.666;18.994;2023-08-24T08:00:29;11.27;;;10.02;;
55025;SDS011;40925;45.666;18.994;2023-08-24T08:02:55;12.95;;;9.90;;
55025;SDS011;40925;45.666;18.994;2023-08-24T08:05:43;14.20;;;9.27;;
55025;SDS011;40925;45.666;18.994;2023-08-24T08:08:08;11.80;;;9.60;;
55025;SDS011;40925;45.666;18.994;2023-08-24T08:10:34;16.98;;;13.27;;
55025;SDS011;40925;45.666;18.994;2023-08-24T08:13:00;12.32;;;9.80;;
55025;SDS011;40925;45.666;18.994;2023-08-24T08:15:26;13.80;;;10.18;;
55025;SDS011;40925;45.666;18.994;2023-08-24T08:17:52;11.57;;;9.20;;
55025;SDS011;40925;45.666;18.994;2023-08-24T08:20:18;12.50;;;9.40;;
55025;SDS011;40925;45.666;18.994;2023-08-24T08:22:45;15.57;;;10.35;;
55025;SDS011;40925;45.666;18.994;2023-08-24T08:25:11;12.80;;;9.43;;
55025;SDS011;40925;45.666;18.994;2023-08-24T08:27:37;15.02;;;10.30;;
55025;SDS011;40925;45.666;18.994;2023-08-24T08:30:04;11.40;;;9.52;;
55025;SDS011;40925;45.666;18.994;2023-08-24T08:32:31;11.80;;;9.77;;
55025;SDS011;40925;45.666;18.994;2023-08-24T08:34:57;11.52;;;9.55;;
55025;SDS011;40925;45.666;18.994;2023-08-24T08:37:43;15.02;;;9.88;;
55025;SDS011;40925;45.666;18.994;2023-08-24T08:42:35;12.23;;;9.80;;
55025;SDS011;40925;45.666;18.994;2023-08-24T08:45:02;13.52;;;9.48;;
55025;SDS011;40925;45.666;18.994;2023-08-24T08:47:34;10.48;;;9.20;;
55025;SDS011;40925;45.666;18.994;2023-08-24T08:50:00;12.52;;;9.65;;
55025;SDS011;40925;45.666;18.994;2023-08-24T08:52:28;12.55;;;8.98;;
55025;SDS011;40925;45.666;18.994;2023-08-24T08:54:54;12.63;;;9.10;;
55025;SDS011;40925;45.666;18.994;2023-08-24T08:57:21;12.18;;;8.88;;
55025;SDS011;40925;45.666;18.994;2023-08-24T08:59:49;12.20;;;8.95;;
55025;SDS011;40925;45.666;18.994;2023-08-24T09:02:16;11.52;;;8.60;;
55025;SDS011;40925;45.666;18.994;2023-08-24T09:04:42;10.52;;;8.75;;
55025;SDS011;40925;45.666;18.994;2023-08-24T09:10:14;14.63;;;9.15;;
55025;SDS011;40925;45.666;18.994;2023-08-24T09:12:40;9.57;;;8.38;;
55025;SDS011;40925;45.666;18.994;2023-08-24T09:15:07;12.48;;;8.30;;
55025;SDS011;40925;45.666;18.994;2023-08-24T09:17:33;9.43;;;8.13;;
55025;SDS011;40925;45.666;18.994;2023-08-24T09:20:00;9.32;;;8.32;;
55025;SDS011;40925;45.666;18.994;2023-08-24T09:22:26;10.13;;;8.32;;
55025;SDS011;40925;45.666;18.994;2023-08-24T09:24:52;10.45;;;8.23;;
55025;SDS011;40925;45.666;18.994;2023-08-24T09:27:20;11.10;;;8.15;;
55025;SDS011;40925;45.666;18.994;2023-08-24T09:29:48;11.30;;;8.10;;
55025;SDS011;40925;45.666;18.994;2023-08-24T09:32:15;9.38;;;7.78;;
55025;SDS011;40925;45.666;18.994;2023-08-24T09:34:41;10.43;;;8.10;;
55025;SDS011;40925;45.666;18.994;2023-08-24T09:40:25;11.60;;;8.23;;
55025;SDS011;40925;45.666;18.994;2023-08-24T09:42:51;9.52;;;7.70;;
55025;SDS011;40925;45.666;18.994;2023-08-24T09:45:17;11.40;;;7.80;;
55025;SDS011;40925;45.666;18.994;2023-08-24T09:47:49;11.82;;;7.60;;
55025;SDS011;40925;45.666;18.994;2023-08-24T09:50:17;11.05;;;7.40;;
55025;SDS011;40925;45.666;18.994;2023-08-24T09:55:53;8.65;;;7.57;;
55025;SDS011;40925;45.666;18.994;2023-08-24T09:58:22;11.02;;;7.43;;
55025;SDS011;40925;45.666;18.994;2023-08-24T10:00:48;8.48;;;7.03;;
55025;SDS011;40925;45.666;18.994;2023-08-24T10:03:15;9.55;;;6.90;;
55025;SDS011;40925;45.666;18.994;2023-08-24T10:05:47;8.63;;;6.93;;
55025;SDS011;40925;45.666;18.994;2023-08-24T10:08:16;8.07;;;6.68;;
55025;SDS011;40925;45.666;18.994;2023-08-24T10:10:45;9.10;;;6.90;;
55025;SDS011;40925;45.666;18.994;2023-08-24T10:13:18;8.27;;;6.90;;
55025;SDS011;40925;45.666;18.994;2023-08-24T10:15:51;10.05;;;6.07;;
55025;SDS011;40925;45.666;18.994;2023-08-24T10:18:18;8.00;;;6.38;;
55025;SDS011;40925;45.666;18.994;2023-08-24T10:20:45;11.32;;;6.78;;
55025;SDS011;40925;45.666;18.994;2023-08-24T10:23:12;9.15;;;6.40;;
55025;SDS011;40925;45.666;18.994;2023-08-24T10:25:40;11.57;;;6.28;;
55025;SDS011;40925;45.666;18.994;2023-08-24T10:28:09;8.30;;;6.60;;
55025;SDS011;40925;45.666;18.994;2023-08-24T10:30:36;9.88;;;7.75;;
55025;SDS011;40925;45.666;18.994;2023-08-24T10:33:04;8.65;;;6.50;;
55025;SDS011;40925;45.666;18.994;2023-08-24T10:35:31;7.38;;;5.80;;
55025;SDS011;40925;45.666;18.994;2023-08-24T10:37:58;9.32;;;6.22;;
55025;SDS011;40925;45.666;18.994;2023-08-24T10:40:35;7.97;;;5.72;;
55025;SDS011;40925;45.666;18.994;2023-08-24T10:43:05;9.27;;;5.82;;
55025;SDS011;40925;45.666;18.994;2023-08-24T10:45:53;7.90;;;5.60;;
55025;SDS011;40925;45.666;18.994;2023-08-24T10:48:23;7.85;;;5.85;;
55025;SDS011;40925;45.666;18.994;2023-08-24T10:56:19;8.38;;;5.82;;
55025;SDS011;40925;45.666;18.994;2023-08-24T10:58:46;8.95;;;5.75;;
55025;SDS011;40925;45.666;18.994;2023-08-24T11:01:16;6.78;;;6.05;;
55025;SDS011;40925;45.666;18.994;2023-08-24T11:06:50;7.63;;;5.82;;
55025;SDS011;40925;45.666;18.994;2023-08-24T11:09:18;9.73;;;5.50;;
55025;SDS011;40925;45.666;18.994;2023-08-24T11:11:55;8.23;;;5.50;;
55025;SDS011;40925;45.666;18.994;2023-08-24T11:14:22;7.47;;;5.47;;
55025;SDS011;40925;45.666;18.994;2023-08-24T11:16:50;7.15;;;5.20;;
55025;SDS011;40925;45.666;18.994;2023-08-24T11:19:16;7.35;;;5.40;;
55025;SDS011;40925;45.666;18.994;2023-08-24T11:21:43;6.57;;;5.22;;
55025;SDS011;40925;45.666;18.994;2023-08-24T11:24:13;8.68;;;6.13;;
55025;SDS011;40925;45.666;18.994;2023-08-24T11:29:24;8.15;;;5.55;;
55025;SDS011;40925;45.666;18.994;2023-08-24T11:31:50;7.50;;;5.00;;
55025;SDS011;40925;45.666;18.994;2023-08-24T11:34:17;8.90;;;5.03;;
55025;SDS011;40925;45.666;18.994;2023-08-24T11:36:43;7.15;;;5.35;;
55025;SDS011;40925;45.666;18.994;2023-08-24T11:39:20;9.98;;;5.60;;
55025;SDS011;40925;45.666;18.994;2023-08-24T11:42:02;6.95;;;5.20;;
55025;SDS011;40925;45.666;18.994;2023-08-24T11:44:29;7.60;;;5.00;;
55025;SDS011;40925;45.666;18.994;2023-08-24T11:47:09;8.07;;;5.15;;
55025;SDS011;40925;45.666;18.994;2023-08-24T11:49:40;5.75;;;5.07;;
55025;SDS011;40925;45.666;18.994;2023-08-24T11:52:24;6.00;;;5.00;;
55025;SDS011;40925;45.666;18.994;2023-08-24T11:54:51;6.28;;;5.00;;
55025;SDS011;40925;45.666;18.994;2023-08-24T11:57:17;6.43;;;5.32;;
55025;SDS011;40925;45.666;18.994;2023-08-24T11:59:42;8.23;;;4.93;;
55025;SDS011;40925;45.666;18.994;2023-08-24T12:02:08;6.63;;;4.82;;
55025;SDS011;40925;45.666;18.994;2023-08-24T12:04:40;7.13;;;4.72;;
55025;SDS011;40925;45.666;18.994;2023-08-24T12:07:10;8.45;;;4.60;;
55025;SDS011;40925;45.666;18.994;2023-08-24T12:09:38;6.40;;;4.68;;
55025;SDS011;40925;45.666;18.994;2023-08-24T12:12:11;7.35;;;4.63;;
55025;SDS011;40925;45.666;18.994;2023-08-24T12:14:43;5.55;;;4.65;;
55025;SDS011;40925;45.666;18.994;2023-08-24T12:17:10;5.70;;;4.47;;
55025;SDS011;40925;45.666;18.994;2023-08-24T12:19:42;7.05;;;4.18;;
55025;SDS011;40925;45.666;18.994;2023-08-24T12:22:27;5.40;;;4.13;;
55025;SDS011;40925;45.666;18.994;2023-08-24T12:24:55;6.90;;;4.35;;
55025;SDS011;40925;45.666;18.994;2023-08-24T12:27:24;5.90;;;4.28;;
55025;SDS011;40925;45.666;18.994;2023-08-24T12:29:59;5.00;;;4.50;;
55025;SDS011;40925;45.666;18.994;2023-08-24T12:32:25;11.10;;;4.60;;
55025;SDS011;40925;45.666;18.994;2023-08-24T12:34:55;8.75;;;4.22;;
55025;SDS011;40925;45.666;18.994;2023-08-24T12:37:21;5.57;;;3.97;;
55025;SDS011;40925;45.666;18.994;2023-08-24T12:39:47;6.07;;;4.68;;
55025;SDS011;40925;45.666;18.994;2023-08-24T12:42:14;8.05;;;4.45;;
55025;SDS011;40925;45.666;18.994;2023-08-24T12:44:40;6.65;;;4.60;;
55025;SDS011;40925;45.666;18.994;2023-08-24T12:47:06;7.40;;;4.30;;
55025;SDS011;40925;45.666;18.994;2023-08-24T12:49:32;8.70;;;4.47;;
55025;SDS011;40925;45.666;18.994;2023-08-24T12:52:00;6.93;;;4.72;;
55025;SDS011;40925;45.666;18.994;2023-08-24T12:54:26;5.80;;;4.75;;
55025;SDS011;40925;45.666;18.994;2023-08-24T12:56:52;6.22;;;4.65;;
55025;SDS011;40925;45.666;18.994;2023-08-24T12:59:18;6.68;;;4.55;;
55025;SDS011;40925;45.666;18.994;2023-08-24T13:01:44;7.22;;;4.88;;
55025;SDS011;40925;45.666;18.994;2023-08-24T13:04:10;5.78;;;4.65;;
55025;SDS011;40925;45.666;18.994;2023-08-24T13:06:36;6.47;;;5.07;;
55025;SDS011;40925;45.666;18.994;2023-08-24T13:09:02;7.53;;;4.88;;
55025;SDS011;40925;45.666;18.994;2023-08-24T13:11:28;7.43;;;4.97;;
55025;SDS011;40925;45.666;18.994;2023-08-24T13:13:54;8.88;;;5.10;;
55025;SDS011;40925;45.666;18.994;2023-08-24T13:16:20;7.55;;;4.97;;
55025;SDS011;40925;45.666;18.994;2023-08-24T13:18:46;8.30;;;5.40;;
55025;SDS011;40925;45.666;18.994;2023-08-24T13:21:12;7.05;;;5.15;;
55025;SDS011;40925;45.666;18.994;2023-08-24T13:23:39;6.82;;;4.78;;
55025;SDS011;40925;45.666;18.994;2023-08-24T13:26:05;9.15;;;5.28;;
55025;SDS011;40925;45.666;18.994;2023-08-24T13:28:31;6.85;;;5.50;;
55025;SDS011;40925;45.666;18.994;2023-08-24T13:30:57;6.22;;;5.30;;
55025;SDS011;40925;45.666;18.994;2023-08-24T13:33:23;6.32;;;5.32;;
55025;SDS011;40925;45.666;18.994;2023-08-24T13:35:49;12.13;;;5.70;;
55025;SDS011;40925;45.666;18.994;2023-08-24T13:38:15;9.23;;;5.85;;
55025;SDS011;40925;45.666;18.994;2023-08-24T13:40:41;8.55;;;5.57;;
55025;SDS011;40925;45.666;18.994;2023-08-24T13:43:07;7.55;;;5.38;;
55025;SDS011;40925;45.666;18.994;2023-08-24T13:45:33;8.80;;;5.90;;
55025;SDS011;40925;45.666;18.994;2023-08-24T13:47:59;8.00;;;5.40;;
55025;SDS011;40925;45.666;18.994;2023-08-24T13:50:26;10.52;;;5.80;;
55025;SDS011;40925;45.666;18.994;2023-08-24T13:52:52;6.00;;;5.45;;
55025;SDS011;40925;45.666;18.994;2023-08-24T13:55:18;12.55;;;6.13;;
55025;SDS011;40925;45.666;18.994;2023-08-24T13:57:44;10.40;;;5.50;;
55025;SDS011;40925;45.666;18.994;2023-08-24T14:00:10;8.77;;;5.95;;
55025;SDS011;40925;45.666;18.994;2023-08-24T14:02:38;7.82;;;5.72;;
55025;SDS011;40925;45.666;18.994;2023-08-24T14:05:05;7.28;;;5.78;;
55025;SDS011;40925;45.666;18.994;2023-08-24T14:07:34;6.25;;;5.60;;
55025;SDS011;40925;45.666;18.994;2023-08-24T14:10:01;8.75;;;5.90;;
55025;SDS011;40925;45.666;18.994;2023-08-24T14:12:27;8.55;;;5.90;;
55025;SDS011;40925;45.666;18.994;2023-08-24T14:14:54;7.18;;;5.50;;
55025;SDS011;40925;45.666;18.994;2023-08-24T14:17:21;10.25;;;6.05;;
55025;SDS011;40925;45.666;18.994;2023-08-24T14:19:47;8.50;;;6.00;;
55025;SDS011;40925;45.666;18.994;2023-08-24T14:22:13;8.10;;;5.45;;
55025;SDS011;40925;45.666;18.994;2023-08-24T14:24:39;8.55;;;5.07;;
55025;SDS011;40925;45.666;18.994;2023-08-24T14:27:05;7.38;;;4.85;;
55025;SDS011;40925;45.666;18.994;2023-08-24T14:29:31;9.13;;;5.20;;
55025;SDS011;40925;45.666;18.994;2023-08-24T14:31:57;8.50;;;4.63;;
55025;SDS011;40925;45.666;18.994;2023-08-24T14:34:22;7.88;;;5.00;;
55025;SDS011;40925;45.666;18.994;2023-08-24T14:36:48;6.68;;;5.00;;
55025;SDS011;40925;45.666;18.994;2023-08-24T14:39:14;5.95;;;4.85;;
55025;SDS011;40925;45.666;18.994;2023-08-24T14:41:40;6.78;;;5.00;;
55025;SDS011;40925;45.666;18.994;2023-08-24T14:44:05;5.22;;;4.70;;
55025;SDS011;40925;45.666;18.994;2023-08-24T14:46:32;9.85;;;5.03;;
55025;SDS011;40925;45.666;18.994;2023-08-24T14:48:59;7.43;;;5.22;;
55025;SDS011;40925;45.666;18.994;2023-08-24T14:51:25;7.97;;;4.93;;
55025;SDS011;40925;45.666;18.994;2023-08-24T14:53:50;6.63;;;5.50;;
55025;SDS011;40925;45.666;18.994;2023-08-24T14:56:16;8.48;;;5.40;;
55025;SDS011;40925;45.666;18.994;2023-08-24T14:58:42;7.60;;;5.07;;